Weston, Illinois
Current Conditions -  °F | °C
As of 11:15 AM on Saturday 25 Oct 2014 (Local Time) from KPNT Reporting Station
Haze Haze  
Wind Chill: 64°   Ceiling: Unl
Heat Index: 64°   Visibility: 5mi
Dew Point: 58°   Wind: 12mph
Humidity: 79%   Direction: 290°WNW
Pressure: 30"   Gusts: NA
Location:  40.7409°N, 88.7189°W
Report Text: KPNT 251615Z AUTO 29010KT 5SM HZ SCT012 18/14 A3000 RMK AO2 T01800144
Loading
Personal Weather Stations






























Interactive Weather Map
Tropical Storm Tracking
New forecast layout! Learn more

10-Day Weather Forecast

Advertisements
Track Severe Weather on mobile